sensor_id;sensor_type;location;lat;lon;timestamp;P1;durP1;ratioP1;P2;durP2;ratioP2
37955;SDS011;23776;51.592;7.180;2022-10-22T00:00:08;8.70;;;5.38;;
37955;SDS011;23776;51.592;7.180;2022-10-22T00:02:35;10.38;;;6.90;;
37955;SDS011;23776;51.592;7.180;2022-10-22T00:05:01;9.68;;;5.22;;
37955;SDS011;23776;51.592;7.180;2022-10-22T00:07:26;11.10;;;5.13;;
37955;SDS011;23776;51.592;7.180;2022-10-22T00:09:52;10.55;;;5.43;;
37955;SDS011;23776;51.592;7.180;2022-10-22T00:12:18;13.13;;;5.65;;
37955;SDS011;23776;51.592;7.180;2022-10-22T00:14:44;9.50;;;4.80;;
37955;SDS011;23776;51.592;7.180;2022-10-22T00:17:10;10.32;;;5.07;;
37955;SDS011;23776;51.592;7.180;2022-10-22T00:19:36;12.20;;;5.10;;
37955;SDS011;23776;51.592;7.180;2022-10-22T00:22:01;13.77;;;4.95;;
37955;SDS011;23776;51.592;7.180;2022-10-22T00:24:29;10.02;;;5.60;;
37955;SDS011;23776;51.592;7.180;2022-10-22T00:26:55;10.05;;;4.90;;
37955;SDS011;23776;51.592;7.180;2022-10-22T00:29:21;8.02;;;4.65;;
37955;SDS011;23776;51.592;7.180;2022-10-22T00:31:47;7.03;;;4.75;;
37955;SDS011;23776;51.592;7.180;2022-10-22T00:34:16;9.63;;;4.95;;
37955;SDS011;23776;51.592;7.180;2022-10-22T00:36:42;10.32;;;5.28;;
37955;SDS011;23776;51.592;7.180;2022-10-22T00:39:08;9.60;;;5.22;;
37955;SDS011;23776;51.592;7.180;2022-10-22T00:41:35;11.25;;;5.60;;
37955;SDS011;23776;51.592;7.180;2022-10-22T00:44:02;11.57;;;5.60;;
37955;SDS011;23776;51.592;7.180;2022-10-22T00:46:29;8.23;;;4.85;;
37955;SDS011;23776;51.592;7.180;2022-10-22T00:48:55;13.15;;;5.60;;
37955;SDS011;23776;51.592;7.180;2022-10-22T00:51:25;10.88;;;5.38;;
37955;SDS011;23776;51.592;7.180;2022-10-22T00:53:56;12.25;;;5.15;;
37955;SDS011;23776;51.592;7.180;2022-10-22T00:56:27;18.90;;;5.30;;
37955;SDS011;23776;51.592;7.180;2022-10-22T00:58:54;10.85;;;5.10;;
37955;SDS011;23776;51.592;7.180;2022-10-22T01:01:24;11.68;;;5.20;;
37955;SDS011;23776;51.592;7.180;2022-10-22T01:03:52;11.82;;;5.22;;
37955;SDS011;23776;51.592;7.180;2022-10-22T01:06:23;15.05;;;5.22;;
37955;SDS011;23776;51.592;7.180;2022-10-22T01:11:26;16.75;;;5.65;;
37955;SDS011;23776;51.592;7.180;2022-10-22T01:14:14;7.65;;;4.75;;
37955;SDS011;23776;51.592;7.180;2022-10-22T01:16:59;11.70;;;4.72;;
37955;SDS011;23776;51.592;7.180;2022-10-22T01:29:59;9.13;;;4.65;;
37955;SDS011;23776;51.592;7.180;2022-10-22T01:32:26;8.10;;;4.93;;
37955;SDS011;23776;51.592;7.180;2022-10-22T01:35:00;8.20;;;4.72;;
37955;SDS011;23776;51.592;7.180;2022-10-22T01:37:34;9.75;;;5.13;;
37955;SDS011;23776;51.592;7.180;2022-10-22T01:40:05;13.10;;;5.22;;
37955;SDS011;23776;51.592;7.180;2022-10-22T01:42:32;10.20;;;4.75;;
37955;SDS011;23776;51.592;7.180;2022-10-22T01:44:59;9.90;;;4.32;;
37955;SDS011;23776;51.592;7.180;2022-10-22T01:53:10;10.02;;;5.43;;
37955;SDS011;23776;51.592;7.180;2022-10-22T01:59:05;13.45;;;4.90;;
37955;SDS011;23776;51.592;7.180;2022-10-22T02:04:12;10.70;;;5.47;;
37955;SDS011;23776;51.592;7.180;2022-10-22T02:06:49;15.82;;;5.55;;
37955;SDS011;23776;51.592;7.180;2022-10-22T02:09:18;9.20;;;4.97;;
37955;SDS011;23776;51.592;7.180;2022-10-22T02:11:45;14.38;;;4.95;;
37955;SDS011;23776;51.592;7.180;2022-10-22T02:14:13;13.57;;;5.50;;
37955;SDS011;23776;51.592;7.180;2022-10-22T02:16:43;24.73;;;5.75;;
37955;SDS011;23776;51.592;7.180;2022-10-22T02:19:14;10.65;;;4.95;;
37955;SDS011;23776;51.592;7.180;2022-10-22T02:22:02;11.48;;;5.20;;
37955;SDS011;23776;51.592;7.180;2022-10-22T02:24:28;9.15;;;4.40;;
37955;SDS011;23776;51.592;7.180;2022-10-22T02:32:29;10.70;;;5.10;;
37955;SDS011;23776;51.592;7.180;2022-10-22T02:34:58;11.80;;;5.25;;
37955;SDS011;23776;51.592;7.180;2022-10-22T02:37:25;11.80;;;4.45;;
37955;SDS011;23776;51.592;7.180;2022-10-22T02:39:52;11.50;;;4.85;;
37955;SDS011;23776;51.592;7.180;2022-10-22T02:42:18;14.77;;;4.82;;
37955;SDS011;23776;51.592;7.180;2022-10-22T02:44:44;9.77;;;4.82;;
37955;SDS011;23776;51.592;7.180;2022-10-22T02:47:09;10.45;;;4.53;;
37955;SDS011;23776;51.592;7.180;2022-10-22T02:49:35;10.90;;;5.70;;
37955;SDS011;23776;51.592;7.180;2022-10-22T02:52:00;10.55;;;4.57;;
37955;SDS011;23776;51.592;7.180;2022-10-22T02:54:26;13.32;;;4.82;;
37955;SDS011;23776;51.592;7.180;2022-10-22T02:56:53;9.95;;;4.72;;
37955;SDS011;23776;51.592;7.180;2022-10-22T02:59:19;19.42;;;5.45;;
37955;SDS011;23776;51.592;7.180;2022-10-22T03:01:44;10.77;;;4.80;;
37955;SDS011;23776;51.592;7.180;2022-10-22T03:04:10;12.13;;;4.70;;
37955;SDS011;23776;51.592;7.180;2022-10-22T03:06:35;9.43;;;4.13;;
37955;SDS011;23776;51.592;7.180;2022-10-22T03:09:01;8.32;;;4.20;;
37955;SDS011;23776;51.592;7.180;2022-10-22T03:11:26;10.27;;;4.82;;
37955;SDS011;23776;51.592;7.180;2022-10-22T03:13:52;11.20;;;4.03;;
37955;SDS011;23776;51.592;7.180;2022-10-22T03:16:17;10.52;;;5.32;;
37955;SDS011;23776;51.592;7.180;2022-10-22T03:18:43;8.65;;;5.13;;
37955;SDS011;23776;51.592;7.180;2022-10-22T03:21:10;11.63;;;4.53;;
37955;SDS011;23776;51.592;7.180;2022-10-22T03:23:55;14.25;;;4.85;;
37955;SDS011;23776;51.592;7.180;2022-10-22T03:26:23;8.07;;;4.40;;
37955;SDS011;23776;51.592;7.180;2022-10-22T03:28:49;8.20;;;4.43;;
37955;SDS011;23776;51.592;7.180;2022-10-22T03:31:15;9.18;;;4.25;;
37955;SDS011;23776;51.592;7.180;2022-10-22T03:33:41;8.82;;;3.83;;
37955;SDS011;23776;51.592;7.180;2022-10-22T03:36:06;8.45;;;4.15;;
37955;SDS011;23776;51.592;7.180;2022-10-22T03:38:34;7.38;;;4.38;;
37955;SDS011;23776;51.592;7.180;2022-10-22T03:41:02;8.40;;;3.90;;
37955;SDS011;23776;51.592;7.180;2022-10-22T03:43:28;9.57;;;3.95;;
37955;SDS011;23776;51.592;7.180;2022-10-22T03:45:54;8.50;;;4.70;;
37955;SDS011;23776;51.592;7.180;2022-10-22T03:48:21;9.45;;;3.95;;
37955;SDS011;23776;51.592;7.180;2022-10-22T03:50:46;10.43;;;4.40;;
37955;SDS011;23776;51.592;7.180;2022-10-22T03:53:13;7.57;;;4.13;;
37955;SDS011;23776;51.592;7.180;2022-10-22T03:55:40;8.70;;;4.55;;
37955;SDS011;23776;51.592;7.180;2022-10-22T03:58:06;9.60;;;4.07;;
37955;SDS011;23776;51.592;7.180;2022-10-22T04:00:33;7.28;;;3.97;;
37955;SDS011;23776;51.592;7.180;2022-10-22T04:02:59;12.25;;;4.88;;
37955;SDS011;23776;51.592;7.180;2022-10-22T04:05:25;14.73;;;5.22;;
37955;SDS011;23776;51.592;7.180;2022-10-22T04:07:51;14.45;;;5.07;;
37955;SDS011;23776;51.592;7.180;2022-10-22T04:10:16;6.35;;;4.40;;
37955;SDS011;23776;51.592;7.180;2022-10-22T04:12:45;12.07;;;5.50;;
37955;SDS011;23776;51.592;7.180;2022-10-22T04:15:13;8.13;;;5.03;;
37955;SDS011;23776;51.592;7.180;2022-10-22T04:17:39;7.00;;;4.15;;
37955;SDS011;23776;51.592;7.180;2022-10-22T04:20:05;7.70;;;4.40;;
37955;SDS011;23776;51.592;7.180;2022-10-22T04:22:33;10.88;;;5.75;;
37955;SDS011;23776;51.592;7.180;2022-10-22T04:25:03;8.10;;;3.75;;
37955;SDS011;23776;51.592;7.180;2022-10-22T04:27:29;7.68;;;4.00;;
37955;SDS011;23776;51.592;7.180;2022-10-22T04:29:56;6.60;;;4.00;;
37955;SDS011;23776;51.592;7.180;2022-10-22T04:32:22;8.40;;;4.60;;
37955;SDS011;23776;51.592;7.180;2022-10-22T04:34:47;6.32;;;3.80;;
37955;SDS011;23776;51.592;7.180;2022-10-22T04:37:13;13.10;;;4.72;;
37955;SDS011;23776;51.592;7.180;2022-10-22T04:39:38;7.78;;;4.38;;
37955;SDS011;23776;51.592;7.180;2022-10-22T04:42:04;9.45;;;4.47;;
37955;SDS011;23776;51.592;7.180;2022-10-22T04:44:29;10.82;;;4.55;;
37955;SDS011;23776;51.592;7.180;2022-10-22T04:46:55;13.85;;;4.85;;
37955;SDS011;23776;51.592;7.180;2022-10-22T04:49:21;12.13;;;4.80;;
37955;SDS011;23776;51.592;7.180;2022-10-22T04:51:46;13.50;;;5.07;;
37955;SDS011;23776;51.592;7.180;2022-10-22T04:54:12;9.82;;;4.72;;
37955;SDS011;23776;51.592;7.180;2022-10-22T04:56:39;7.93;;;4.45;;
37955;SDS011;23776;51.592;7.180;2022-10-22T04:59:05;8.90;;;4.22;;
37955;SDS011;23776;51.592;7.180;2022-10-22T05:01:36;8.70;;;5.15;;
37955;SDS011;23776;51.592;7.180;2022-10-22T05:04:05;8.20;;;4.40;;
37955;SDS011;23776;51.592;7.180;2022-10-22T05:06:33;12.25;;;5.47;;
37955;SDS011;23776;51.592;7.180;2022-10-22T05:09:06;12.30;;;4.93;;
37955;SDS011;23776;51.592;7.180;2022-10-22T05:11:35;12.38;;;4.88;;
37955;SDS011;23776;51.592;7.180;2022-10-22T05:14:05;14.05;;;5.13;;
37955;SDS011;23776;51.592;7.180;2022-10-22T05:16:32;12.20;;;4.90;;
37955;SDS011;23776;51.592;7.180;2022-10-22T05:18:58;12.15;;;4.93;;
37955;SDS011;23776;51.592;7.180;2022-10-22T05:21:25;17.08;;;5.43;;
37955;SDS011;23776;51.592;7.180;2022-10-22T05:23:53;8.02;;;4.38;;
37955;SDS011;23776;51.592;7.180;2022-10-22T05:26:19;8.80;;;5.20;;
37955;SDS011;23776;51.592;7.180;2022-10-22T05:28:46;16.05;;;6.55;;
37955;SDS011;23776;51.592;7.180;2022-10-22T05:31:13;10.73;;;5.13;;
37955;SDS011;23776;51.592;7.180;2022-10-22T05:33:40;8.38;;;4.78;;
37955;SDS011;23776;51.592;7.180;2022-10-22T05:36:07;10.48;;;5.13;;
37955;SDS011;23776;51.592;7.180;2022-10-22T05:38:35;15.48;;;5.28;;
37955;SDS011;23776;51.592;7.180;2022-10-22T05:41:05;10.02;;;4.60;;
37955;SDS011;23776;51.592;7.180;2022-10-22T05:43:33;9.32;;;4.63;;
37955;SDS011;23776;51.592;7.180;2022-10-22T05:46:04;9.52;;;5.15;;
37955;SDS011;23776;51.592;7.180;2022-10-22T05:48:31;13.73;;;5.55;;
37955;SDS011;23776;51.592;7.180;2022-10-22T05:51:00;9.65;;;5.25;;
37955;SDS011;23776;51.592;7.180;2022-10-22T05:53:28;12.90;;;5.50;;
37955;SDS011;23776;51.592;7.180;2022-10-22T05:55:55;12.35;;;5.45;;
37955;SDS011;23776;51.592;7.180;2022-10-22T05:58:23;10.23;;;5.22;;
37955;SDS011;23776;51.592;7.180;2022-10-22T06:00:49;16.85;;;6.32;;
37955;SDS011;23776;51.592;7.180;2022-10-22T06:03:14;10.15;;;5.35;;
37955;SDS011;23776;51.592;7.180;2022-10-22T06:05:41;13.13;;;6.22;;
37955;SDS011;23776;51.592;7.180;2022-10-22T06:08:07;11.60;;;5.78;;
37955;SDS011;23776;51.592;7.180;2022-10-22T06:10:35;14.77;;;6.25;;
37955;SDS011;23776;51.592;7.180;2022-10-22T06:13:04;14.40;;;6.65;;
37955;SDS011;23776;51.592;7.180;2022-10-22T06:15:32;13.15;;;6.60;;
37955;SDS011;23776;51.592;7.180;2022-10-22T06:17:58;19.92;;;7.82;;
37955;SDS011;23776;51.592;7.180;2022-10-22T06:20:23;20.00;;;7.50;;
37955;SDS011;23776;51.592;7.180;2022-10-22T06:22:49;16.38;;;7.10;;
37955;SDS011;23776;51.592;7.180;2022-10-22T06:25:14;14.10;;;7.47;;
37955;SDS011;23776;51.592;7.180;2022-10-22T06:27:40;12.18;;;7.28;;
37955;SDS011;23776;51.592;7.180;2022-10-22T06:30:06;15.73;;;7.70;;
37955;SDS011;23776;51.592;7.180;2022-10-22T06:32:32;17.00;;;7.63;;
37955;SDS011;23776;51.592;7.180;2022-10-22T06:34:57;15.68;;;7.32;;
37955;SDS011;23776;51.592;7.180;2022-10-22T06:37:23;17.65;;;7.78;;
37955;SDS011;23776;51.592;7.180;2022-10-22T06:39:50;20.15;;;7.97;;
37955;SDS011;23776;51.592;7.180;2022-10-22T06:42:16;20.05;;;8.20;;
37955;SDS011;23776;51.592;7.180;2022-10-22T06:44:41;16.50;;;7.63;;
37955;SDS011;23776;51.592;7.180;2022-10-22T06:47:08;17.83;;;8.18;;
37955;SDS011;23776;51.592;7.180;2022-10-22T06:49:34;29.05;;;9.45;;
37955;SDS011;23776;51.592;7.180;2022-10-22T06:52:00;25.00;;;10.48;;
37955;SDS011;23776;51.592;7.180;2022-10-22T06:54:26;27.13;;;10.93;;
37955;SDS011;23776;51.592;7.180;2022-10-22T06:56:52;19.95;;;10.23;;
37955;SDS011;23776;51.592;7.180;2022-10-22T06:59:17;24.98;;;10.90;;
37955;SDS011;23776;51.592;7.180;2022-10-22T07:01:43;30.67;;;11.23;;
37955;SDS011;23776;51.592;7.180;2022-10-22T07:04:08;23.20;;;10.48;;
37955;SDS011;23776;51.592;7.180;2022-10-22T07:06:34;19.63;;;9.88;;
37955;SDS011;23776;51.592;7.180;2022-10-22T07:09:00;26.00;;;8.77;;
37955;SDS011;23776;51.592;7.180;2022-10-22T07:11:27;21.90;;;8.55;;
37955;SDS011;23776;51.592;7.180;2022-10-22T07:14:02;21.80;;;8.07;;
37955;SDS011;23776;51.592;7.180;2022-10-22T07:16:28;16.85;;;7.38;;
37955;SDS011;23776;51.592;7.180;2022-10-22T07:18:53;17.02;;;7.53;;
37955;SDS011;23776;51.592;7.180;2022-10-22T07:21:19;18.63;;;7.10;;
37955;SDS011;23776;51.592;7.180;2022-10-22T07:23:46;18.23;;;6.78;;
37955;SDS011;23776;51.592;7.180;2022-10-22T07:26:13;17.30;;;6.20;;
37955;SDS011;23776;51.592;7.180;2022-10-22T07:28:39;15.40;;;5.93;;
37955;SDS011;23776;51.592;7.180;2022-10-22T07:31:09;12.57;;;5.90;;
37955;SDS011;23776;51.592;7.180;2022-10-22T07:33:35;14.10;;;5.30;;
37955;SDS011;23776;51.592;7.180;2022-10-22T07:36:03;11.38;;;6.47;;
37955;SDS011;23776;51.592;7.180;2022-10-22T07:38:30;11.73;;;5.00;;
37955;SDS011;23776;51.592;7.180;2022-10-22T07:40:56;12.07;;;5.55;;
37955;SDS011;23776;51.592;7.180;2022-10-22T07:43:22;14.98;;;5.05;;
37955;SDS011;23776;51.592;7.180;2022-10-22T07:45:48;12.77;;;4.28;;
37955;SDS011;23776;51.592;7.180;2022-10-22T07:48:13;10.63;;;4.82;;
37955;SDS011;23776;51.592;7.180;2022-10-22T07:50:40;13.40;;;4.10;;
37955;SDS011;23776;51.592;7.180;2022-10-22T07:53:05;20.48;;;6.57;;
37955;SDS011;23776;51.592;7.180;2022-10-22T07:55:31;15.25;;;4.43;;
37955;SDS011;23776;51.592;7.180;2022-10-22T07:57:58;9.65;;;3.92;;
37955;SDS011;23776;51.592;7.180;2022-10-22T08:00:23;8.48;;;3.63;;
37955;SDS011;23776;51.592;7.180;2022-10-22T08:02:49;14.10;;;4.03;;
37955;SDS011;23776;51.592;7.180;2022-10-22T08:05:14;6.88;;;3.72;;
37955;SDS011;23776;51.592;7.180;2022-10-22T08:07:40;15.18;;;3.55;;
37955;SDS011;23776;51.592;7.180;2022-10-22T08:10:10;10.80;;;3.92;;
37955;SDS011;23776;51.592;7.180;2022-10-22T08:12:36;17.98;;;3.60;;
37955;SDS011;23776;51.592;7.180;2022-10-22T08:15:02;12.80;;;4.10;;
37955;SDS011;23776;51.592;7.180;2022-10-22T08:17:28;11.60;;;3.30;;
37955;SDS011;23776;51.592;7.180;2022-10-22T08:19:54;15.38;;;3.42;;
37955;SDS011;23776;51.592;7.180;2022-10-22T08:22:20;12.40;;;3.13;;
37955;SDS011;23776;51.592;7.180;2022-10-22T08:24:46;9.50;;;3.55;;
37955;SDS011;23776;51.592;7.180;2022-10-22T08:27:11;13.57;;;3.30;;
37955;SDS011;23776;51.592;7.180;2022-10-22T08:29:37;13.90;;;3.00;;
37955;SDS011;23776;51.592;7.180;2022-10-22T08:32:02;10.15;;;2.45;;
37955;SDS011;23776;51.592;7.180;2022-10-22T08:34:29;9.88;;;2.85;;
37955;SDS011;23776;51.592;7.180;2022-10-22T08:36:55;13.68;;;3.10;;
37955;SDS011;23776;51.592;7.180;2022-10-22T08:39:21;5.80;;;1.83;;
37955;SDS011;23776;51.592;7.180;2022-10-22T08:41:52;17.67;;;2.80;;
37955;SDS011;23776;51.592;7.180;2022-10-22T08:50:04;13.20;;;2.90;;
37955;SDS011;23776;51.592;7.180;2022-10-22T08:52:33;9.55;;;2.60;;
37955;SDS011;23776;51.592;7.180;2022-10-22T08:55:00;10.25;;;2.55;;
37955;SDS011;23776;51.592;7.180;2022-10-22T09:00:00;9.82;;;2.15;;
37955;SDS011;23776;51.592;7.180;2022-10-22T09:02:47;9.43;;;1.92;;
37955;SDS011;23776;51.592;7.180;2022-10-22T09:08:12;6.82;;;2.30;;
37955;SDS011;23776;51.592;7.180;2022-10-22T09:11:05;8.27;;;1.88;;
37955;SDS011;23776;51.592;7.180;2022-10-22T09:13:32;5.13;;;1.63;;
37955;SDS011;23776;51.592;7.180;2022-10-22T09:15:59;12.02;;;2.53;;
37955;SDS011;23776;51.592;7.180;2022-10-22T09:18:40;13.07;;;2.63;;
37955;SDS011;23776;51.592;7.180;2022-10-22T09:24:38;10.27;;;2.40;;
37955;SDS011;23776;51.592;7.180;2022-10-22T09:29:45;6.72;;;1.75;;
37955;SDS011;23776;51.592;7.180;2022-10-22T09:32:12;7.13;;;2.22;;
37955;SDS011;23776;51.592;7.180;2022-10-22T09:34:39;9.90;;;2.35;;
37955;SDS011;23776;51.592;7.180;2022-10-22T09:37:07;11.10;;;2.67;;
37955;SDS011;23776;51.592;7.180;2022-10-22T09:39:43;16.42;;;2.13;;
37955;SDS011;23776;51.592;7.180;2022-10-22T09:42:15;5.15;;;2.10;;
37955;SDS011;23776;51.592;7.180;2022-10-22T09:44:42;8.93;;;2.55;;
37955;SDS011;23776;51.592;7.180;2022-10-22T09:53:18;4.97;;;1.70;;
37955;SDS011;23776;51.592;7.180;2022-10-22T09:55:49;9.75;;;2.15;;
37955;SDS011;23776;51.592;7.180;2022-10-22T09:58:17;8.98;;;1.80;;
37955;SDS011;23776;51.592;7.180;2022-10-22T10:00:44;6.22;;;1.92;;
37955;SDS011;23776;51.592;7.180;2022-10-22T10:03:19;9.32;;;2.13;;
37955;SDS011;23776;51.592;7.180;2022-10-22T10:05:47;12.13;;;2.33;;
37955;SDS011;23776;51.592;7.180;2022-10-22T10:08:17;12.63;;;2.17;;
37955;SDS011;23776;51.592;7.180;2022-10-22T10:14:00;8.75;;;2.88;;
37955;SDS011;23776;51.592;7.180;2022-10-22T10:16:10;11.35;;;1.83;;
37955;SDS011;23776;51.592;7.180;2022-10-22T10:29:35;12.60;;;2.08;;
37955;SDS011;23776;51.592;7.180;2022-10-22T10:35:19;9.63;;;1.70;;
37955;SDS011;23776;51.592;7.180;2022-10-22T10:40:49;9.43;;;1.80;;
37955;SDS011;23776;51.592;7.180;2022-10-22T10:43:31;12.38;;;2.03;;
37955;SDS011;23776;51.592;7.180;2022-10-22T10:49:09;6.10;;;1.65;;
37955;SDS011;23776;51.592;7.180;2022-10-22T10:57:01;11.95;;;1.75;;
37955;SDS011;23776;51.592;7.180;2022-10-22T11:00:08;7.18;;;1.40;;
37955;SDS011;23776;51.592;7.180;2022-10-22T11:08:20;8.48;;;1.52;;
37955;SDS011;23776;51.592;7.180;2022-10-22T11:10:53;5.13;;;1.42;;
37955;SDS011;23776;51.592;7.180;2022-10-22T11:13:35;11.27;;;1.60;;
37955;SDS011;23776;51.592;7.180;2022-10-22T11:16:19;9.20;;;1.92;;
37955;SDS011;23776;51.592;7.180;2022-10-22T11:21:40;11.25;;;2.72;;
37955;SDS011;23776;51.592;7.180;2022-10-22T11:29:59;18.30;;;6.22;;
37955;SDS011;23776;51.592;7.180;2022-10-22T11:32:27;7.47;;;1.98;;
37955;SDS011;23776;51.592;7.180;2022-10-22T11:35:00;5.97;;;1.75;;
37955;SDS011;23776;51.592;7.180;2022-10-22T11:37:29;10.95;;;2.72;;
37955;SDS011;23776;51.592;7.180;2022-10-22T11:42:55;3.92;;;1.75;;
37955;SDS011;23776;51.592;7.180;2022-10-22T11:45:26;7.65;;;1.48;;
37955;SDS011;23776;51.592;7.180;2022-10-22T11:48:05;8.07;;;1.80;;
37955;SDS011;23776;51.592;7.180;2022-10-22T11:53:55;7.32;;;1.60;;
37955;SDS011;23776;51.592;7.180;2022-10-22T11:56:22;9.05;;;1.90;;
37955;SDS011;23776;51.592;7.180;2022-10-22T11:58:50;9.07;;;1.17;;
37955;SDS011;23776;51.592;7.180;2022-10-22T20:05:40;21.23;;;10.82;;
37955;SDS011;23776;51.592;7.180;2022-10-22T20:08:07;20.13;;;10.50;;
37955;SDS011;23776;51.592;7.180;2022-10-22T20:10:34;18.88;;;9.15;;
37955;SDS011;23776;51.592;7.180;2022-10-22T20:12:59;27.50;;;10.35;;
37955;SDS011;23776;51.592;7.180;2022-10-22T20:15:25;22.05;;;10.30;;
37955;SDS011;23776;51.592;7.180;2022-10-22T20:17:51;23.58;;;11.63;;
37955;SDS011;23776;51.592;7.180;2022-10-22T20:20:17;25.77;;;11.13;;
37955;SDS011;23776;51.592;7.180;2022-10-22T20:22:43;25.50;;;11.07;;
37955;SDS011;23776;51.592;7.180;2022-10-22T20:25:10;20.85;;;11.50;;
37955;SDS011;23776;51.592;7.180;2022-10-22T20:27:36;23.08;;;11.05;;
37955;SDS011;23776;51.592;7.180;2022-10-22T20:30:03;25.20;;;11.48;;
37955;SDS011;23776;51.592;7.180;2022-10-22T20:32:30;17.83;;;10.45;;
37955;SDS011;23776;51.592;7.180;2022-10-22T20:34:55;29.25;;;12.18;;
37955;SDS011;23776;51.592;7.180;2022-10-22T20:37:21;22.58;;;10.98;;
37955;SDS011;23776;51.592;7.180;2022-10-22T20:39:49;26.77;;;12.20;;
37955;SDS011;23776;51.592;7.180;2022-10-22T20:42:15;22.67;;;11.52;;
37955;SDS011;23776;51.592;7.180;2022-10-22T20:44:41;22.30;;;11.70;;
37955;SDS011;23776;51.592;7.180;2022-10-22T20:47:06;30.52;;;12.57;;
37955;SDS011;23776;51.592;7.180;2022-10-22T20:49:33;25.17;;;11.45;;
37955;SDS011;23776;51.592;7.180;2022-10-22T20:51:59;24.77;;;12.20;;
37955;SDS011;23776;51.592;7.180;2022-10-22T20:54:25;23.83;;;12.43;;
37955;SDS011;23776;51.592;7.180;2022-10-22T20:56:50;25.05;;;11.68;;
37955;SDS011;23776;51.592;7.180;2022-10-22T20:59:16;20.52;;;11.23;;
37955;SDS011;23776;51.592;7.180;2022-10-22T21:01:43;28.25;;;14.10;;
37955;SDS011;23776;51.592;7.180;2022-10-22T21:04:12;33.58;;;13.35;;
37955;SDS011;23776;51.592;7.180;2022-10-22T21:06:38;26.13;;;11.95;;
37955;SDS011;23776;51.592;7.180;2022-10-22T21:09:09;30.75;;;13.02;;
37955;SDS011;23776;51.592;7.180;2022-10-22T21:11:36;27.65;;;13.82;;
37955;SDS011;23776;51.592;7.180;2022-10-22T21:14:02;26.05;;;13.85;;
37955;SDS011;23776;51.592;7.180;2022-10-22T21:16:28;25.17;;;14.05;;
37955;SDS011;23776;51.592;7.180;2022-10-22T21:18:55;24.80;;;12.65;;
37955;SDS011;23776;51.592;7.180;2022-10-22T21:21:20;25.50;;;12.48;;
37955;SDS011;23776;51.592;7.180;2022-10-22T21:23:46;34.67;;;13.75;;
37955;SDS011;23776;51.592;7.180;2022-10-22T21:26:14;30.25;;;13.60;;
37955;SDS011;23776;51.592;7.180;2022-10-22T21:28:39;30.48;;;13.98;;
37955;SDS011;23776;51.592;7.180;2022-10-22T21:31:06;28.17;;;12.85;;
37955;SDS011;23776;51.592;7.180;2022-10-22T21:33:34;31.77;;;12.95;;
37955;SDS011;23776;51.592;7.180;2022-10-22T21:36:04;27.77;;;12.35;;
37955;SDS011;23776;51.592;7.180;2022-10-22T21:38:30;33.80;;;13.38;;
37955;SDS011;23776;51.592;7.180;2022-10-22T21:40:56;29.08;;;11.85;;
37955;SDS011;23776;51.592;7.180;2022-10-22T21:43:22;31.40;;;13.45;;
37955;SDS011;23776;51.592;7.180;2022-10-22T21:45:48;28.02;;;12.60;;
37955;SDS011;23776;51.592;7.180;2022-10-22T21:48:14;30.08;;;14.15;;
37955;SDS011;23776;51.592;7.180;2022-10-22T21:50:40;27.23;;;12.65;;
37955;SDS011;23776;51.592;7.180;2022-10-22T21:53:08;27.00;;;11.43;;
37955;SDS011;23776;51.592;7.180;2022-10-22T21:55:38;24.23;;;13.30;;
37955;SDS011;23776;51.592;7.180;2022-10-22T21:58:04;21.00;;;11.95;;
37955;SDS011;23776;51.592;7.180;2022-10-22T22:00:30;23.63;;;11.82;;
37955;SDS011;23776;51.592;7.180;2022-10-22T22:02:56;24.70;;;12.35;;
37955;SDS011;23776;51.592;7.180;2022-10-22T22:05:22;26.23;;;13.13;;
37955;SDS011;23776;51.592;7.180;2022-10-22T22:07:47;29.33;;;14.05;;
37955;SDS011;23776;51.592;7.180;2022-10-22T22:10:13;27.10;;;12.45;;
37955;SDS011;23776;51.592;7.180;2022-10-22T22:12:39;23.10;;;12.30;;
37955;SDS011;23776;51.592;7.180;2022-10-22T22:15:04;27.15;;;12.30;;
37955;SDS011;23776;51.592;7.180;2022-10-22T22:17:30;28.90;;;12.23;;
37955;SDS011;23776;51.592;7.180;2022-10-22T22:19:56;26.08;;;12.68;;
37955;SDS011;23776;51.592;7.180;2022-10-22T22:22:22;27.10;;;12.57;;
37955;SDS011;23776;51.592;7.180;2022-10-22T22:24:47;29.05;;;13.57;;
37955;SDS011;23776;51.592;7.180;2022-10-22T22:27:13;25.83;;;11.93;;
37955;SDS011;23776;51.592;7.180;2022-10-22T22:29:41;23.27;;;12.77;;
37955;SDS011;23776;51.592;7.180;2022-10-22T22:32:07;29.05;;;14.18;;
37955;SDS011;23776;51.592;7.180;2022-10-22T22:34:33;23.55;;;12.82;;
37955;SDS011;23776;51.592;7.180;2022-10-22T22:36:58;24.10;;;12.38;;
37955;SDS011;23776;51.592;7.180;2022-10-22T22:39:24;23.30;;;12.90;;
37955;SDS011;23776;51.592;7.180;2022-10-22T22:41:50;26.13;;;12.30;;
37955;SDS011;23776;51.592;7.180;2022-10-22T22:44:16;19.10;;;11.23;;
37955;SDS011;23776;51.592;7.180;2022-10-22T22:46:42;22.88;;;12.45;;
37955;SDS011;23776;51.592;7.180;2022-10-22T22:49:08;23.25;;;13.00;;
37955;SDS011;23776;51.592;7.180;2022-10-22T22:51:34;27.30;;;13.27;;
37955;SDS011;23776;51.592;7.180;2022-10-22T22:53:59;24.83;;;12.38;;
37955;SDS011;23776;51.592;7.180;2022-10-22T22:56:29;22.77;;;11.10;;
37955;SDS011;23776;51.592;7.180;2022-10-22T22:58:56;21.25;;;11.32;;
37955;SDS011;23776;51.592;7.180;2022-10-22T23:01:26;25.00;;;10.55;;
37955;SDS011;23776;51.592;7.180;2022-10-22T23:03:55;19.00;;;10.30;;
37955;SDS011;23776;51.592;7.180;2022-10-22T23:06:25;22.73;;;11.10;;
37955;SDS011;23776;51.592;7.180;2022-10-22T23:08:52;23.35;;;10.63;;
37955;SDS011;23776;51.592;7.180;2022-10-22T23:11:19;20.75;;;10.43;;
37955;SDS011;23776;51.592;7.180;2022-10-22T23:13:46;21.65;;;9.88;;
37955;SDS011;23776;51.592;7.180;2022-10-22T23:16:16;35.28;;;11.13;;
37955;SDS011;23776;51.592;7.180;2022-10-22T23:18:45;21.70;;;10.88;;
37955;SDS011;23776;51.592;7.180;2022-10-22T23:21:12;21.48;;;10.63;;
37955;SDS011;23776;51.592;7.180;2022-10-22T23:23:43;18.38;;;9.05;;
37955;SDS011;23776;51.592;7.180;2022-10-22T23:26:11;24.63;;;10.80;;
37955;SDS011;23776;51.592;7.180;2022-10-22T23:28:37;19.17;;;9.63;;
37955;SDS011;23776;51.592;7.180;2022-10-22T23:31:03;18.08;;;10.18;;
37955;SDS011;23776;51.592;7.180;2022-10-22T23:33:30;22.35;;;9.68;;
37955;SDS011;23776;51.592;7.180;2022-10-22T23:35:58;21.02;;;10.23;;
37955;SDS011;23776;51.592;7.180;2022-10-22T23:38:25;24.15;;;11.00;;
37955;SDS011;23776;51.592;7.180;2022-10-22T23:40:54;21.02;;;9.75;;
37955;SDS011;23776;51.592;7.180;2022-10-22T23:43:21;24.20;;;10.25;;
37955;SDS011;23776;51.592;7.180;2022-10-22T23:45:50;21.67;;;10.00;;
37955;SDS011;23776;51.592;7.180;2022-10-22T23:48:17;30.17;;;10.57;;
37955;SDS011;23776;51.592;7.180;2022-10-22T23:50:43;25.92;;;12.77;;
37955;SDS011;23776;51.592;7.180;2022-10-22T23:53:09;21.77;;;10.57;;
37955;SDS011;23776;51.592;7.180;2022-10-22T23:55:38;18.77;;;10.27;;
37955;SDS011;23776;51.592;7.180;2022-10-22T23:58:05;26.45;;;11.25;;
